sensor_id;sensor_type;location;lat;lon;timestamp;P1;durP1;ratioP1;P2;durP2;ratioP2
51288;SDS011;37372;52.294;5.152;2023-09-12T00:01:59;102.50;;;51.80;;
51288;SDS011;37372;52.294;5.152;2023-09-12T00:04:25;103.88;;;54.38;;
51288;SDS011;37372;52.294;5.152;2023-09-12T00:06:50;107.55;;;51.55;;
51288;SDS011;37372;52.294;5.152;2023-09-12T00:09:16;114.18;;;55.08;;
51288;SDS011;37372;52.294;5.152;2023-09-12T00:11:41;109.35;;;53.75;;
51288;SDS011;37372;52.294;5.152;2023-09-12T00:14:08;114.38;;;54.35;;
51288;SDS011;37372;52.294;5.152;2023-09-12T00:16:34;119.03;;;55.92;;
51288;SDS011;37372;52.294;5.152;2023-09-12T00:18:59;114.32;;;55.00;;
51288;SDS011;37372;52.294;5.152;2023-09-12T00:21:25;119.22;;;55.30;;
51288;SDS011;37372;52.294;5.152;2023-09-12T00:23:50;119.13;;;57.10;;
51288;SDS011;37372;52.294;5.152;2023-09-12T00:26:15;121.43;;;56.95;;
51288;SDS011;37372;52.294;5.152;2023-09-12T00:28:41;121.50;;;58.88;;
51288;SDS011;37372;52.294;5.152;2023-09-12T00:31:06;121.40;;;57.30;;
51288;SDS011;37372;52.294;5.152;2023-09-12T00:33:31;129.25;;;60.08;;
51288;SDS011;37372;52.294;5.152;2023-09-12T00:35:57;115.18;;;54.90;;
51288;SDS011;37372;52.294;5.152;2023-09-12T00:38:22;130.60;;;58.88;;
51288;SDS011;37372;52.294;5.152;2023-09-12T00:40:48;132.02;;;56.85;;
51288;SDS011;37372;52.294;5.152;2023-09-12T00:43:13;124.97;;;57.13;;
51288;SDS011;37372;52.294;5.152;2023-09-12T00:45:38;128.57;;;59.08;;
51288;SDS011;37372;52.294;5.152;2023-09-12T00:48:04;131.93;;;60.20;;
51288;SDS011;37372;52.294;5.152;2023-09-12T00:50:31;134.55;;;57.90;;
51288;SDS011;37372;52.294;5.152;2023-09-12T00:52:58;126.15;;;56.60;;
51288;SDS011;37372;52.294;5.152;2023-09-12T00:55:24;105.40;;;51.03;;
51288;SDS011;37372;52.294;5.152;2023-09-12T00:57:50;119.10;;;53.25;;
51288;SDS011;37372;52.294;5.152;2023-09-12T01:00:18;118.40;;;54.45;;
51288;SDS011;37372;52.294;5.152;2023-09-12T01:02:44;122.65;;;56.72;;
51288;SDS011;37372;52.294;5.152;2023-09-12T01:05:11;137.07;;;57.33;;
51288;SDS011;37372;52.294;5.152;2023-09-12T01:07:38;139.02;;;54.97;;
51288;SDS011;37372;52.294;5.152;2023-09-12T01:10:04;108.95;;;47.78;;
51288;SDS011;37372;52.294;5.152;2023-09-12T01:12:31;96.40;;;44.75;;
51288;SDS011;37372;52.294;5.152;2023-09-12T01:14:56;107.35;;;48.80;;
51288;SDS011;37372;52.294;5.152;2023-09-12T01:17:25;113.55;;;49.03;;
51288;SDS011;37372;52.294;5.152;2023-09-12T01:19:51;110.20;;;49.72;;
51288;SDS011;37372;52.294;5.152;2023-09-12T01:25:12;117.88;;;52.72;;
51288;SDS011;37372;52.294;5.152;2023-09-12T01:27:48;127.28;;;55.00;;
51288;SDS011;37372;52.294;5.152;2023-09-12T01:30:22;126.05;;;54.05;;
51288;SDS011;37372;52.294;5.152;2023-09-12T01:32:50;132.35;;;55.13;;
51288;SDS011;37372;52.294;5.152;2023-09-12T01:35:17;133.80;;;55.88;;
51288;SDS011;37372;52.294;5.152;2023-09-12T01:37:42;117.13;;;53.85;;
51288;SDS011;37372;52.294;5.152;2023-09-12T01:40:08;127.18;;;56.40;;
51288;SDS011;37372;52.294;5.152;2023-09-12T01:42:36;123.47;;;54.63;;
51288;SDS011;37372;52.294;5.152;2023-09-12T01:45:02;132.45;;;57.08;;
51288;SDS011;37372;52.294;5.152;2023-09-12T01:47:29;132.98;;;54.22;;
51288;SDS011;37372;52.294;5.152;2023-09-12T01:49:56;111.03;;;49.33;;
51288;SDS011;37372;52.294;5.152;2023-09-12T01:52:24;104.97;;;47.67;;
51288;SDS011;37372;52.294;5.152;2023-09-12T01:54:51;129.32;;;53.97;;
51288;SDS011;37372;52.294;5.152;2023-09-12T01:57:18;132.43;;;56.25;;
51288;SDS011;37372;52.294;5.152;2023-09-12T01:59:46;124.22;;;55.95;;
51288;SDS011;37372;52.294;5.152;2023-09-12T02:02:13;153.23;;;58.53;;
51288;SDS011;37372;52.294;5.152;2023-09-12T02:04:39;147.40;;;59.95;;
51288;SDS011;37372;52.294;5.152;2023-09-12T02:07:04;152.90;;;60.60;;
51288;SDS011;37372;52.294;5.152;2023-09-12T02:09:29;133.85;;;58.80;;
51288;SDS011;37372;52.294;5.152;2023-09-12T02:11:55;152.85;;;62.17;;
51288;SDS011;37372;52.294;5.152;2023-09-12T02:14:20;148.60;;;59.25;;
51288;SDS011;37372;52.294;5.152;2023-09-12T02:16:45;138.55;;;59.83;;
51288;SDS011;37372;52.294;5.152;2023-09-12T02:19:11;139.23;;;58.50;;
51288;SDS011;37372;52.294;5.152;2023-09-12T02:21:36;146.88;;;59.63;;
51288;SDS011;37372;52.294;5.152;2023-09-12T02:24:01;138.88;;;57.22;;
51288;SDS011;37372;52.294;5.152;2023-09-12T02:26:27;142.48;;;58.63;;
51288;SDS011;37372;52.294;5.152;2023-09-12T02:28:52;151.00;;;59.63;;
51288;SDS011;37372;52.294;5.152;2023-09-12T02:31:18;138.68;;;57.13;;
51288;SDS011;37372;52.294;5.152;2023-09-12T02:33:43;140.25;;;56.42;;
51288;SDS011;37372;52.294;5.152;2023-09-12T02:36:08;136.77;;;56.17;;
51288;SDS011;37372;52.294;5.152;2023-09-12T02:38:34;137.95;;;57.15;;
51288;SDS011;37372;52.294;5.152;2023-09-12T02:40:59;132.00;;;55.30;;
51288;SDS011;37372;52.294;5.152;2023-09-12T02:43:24;144.95;;;57.80;;
51288;SDS011;37372;52.294;5.152;2023-09-12T02:45:50;134.55;;;55.97;;
51288;SDS011;37372;52.294;5.152;2023-09-12T02:48:15;146.85;;;57.58;;
51288;SDS011;37372;52.294;5.152;2023-09-12T02:50:40;144.65;;;55.92;;
51288;SDS011;37372;52.294;5.152;2023-09-12T02:53:06;129.50;;;54.78;;
51288;SDS011;37372;52.294;5.152;2023-09-12T02:55:31;127.22;;;53.40;;
51288;SDS011;37372;52.294;5.152;2023-09-12T02:57:57;131.50;;;52.25;;
51288;SDS011;37372;52.294;5.152;2023-09-12T03:00:23;127.72;;;51.33;;
51288;SDS011;37372;52.294;5.152;2023-09-12T03:02:48;122.60;;;52.20;;
51288;SDS011;37372;52.294;5.152;2023-09-12T03:05:14;120.82;;;49.83;;
51288;SDS011;37372;52.294;5.152;2023-09-12T03:07:39;130.85;;;50.10;;
51288;SDS011;37372;52.294;5.152;2023-09-12T03:10:04;126.68;;;50.20;;
51288;SDS011;37372;52.294;5.152;2023-09-12T03:12:30;127.18;;;51.22;;
51288;SDS011;37372;52.294;5.152;2023-09-12T03:14:56;120.75;;;50.72;;
51288;SDS011;37372;52.294;5.152;2023-09-12T03:17:21;121.97;;;50.65;;
51288;SDS011;37372;52.294;5.152;2023-09-12T03:19:47;131.13;;;51.55;;
51288;SDS011;37372;52.294;5.152;2023-09-12T03:22:12;125.75;;;49.42;;
51288;SDS011;37372;52.294;5.152;2023-09-12T03:24:38;114.28;;;50.05;;
51288;SDS011;37372;52.294;5.152;2023-09-12T03:27:03;123.80;;;53.17;;
51288;SDS011;37372;52.294;5.152;2023-09-12T03:29:29;116.50;;;48.47;;
51288;SDS011;37372;52.294;5.152;2023-09-12T03:31:54;121.50;;;51.47;;
51288;SDS011;37372;52.294;5.152;2023-09-12T03:34:19;118.50;;;50.13;;
51288;SDS011;37372;52.294;5.152;2023-09-12T03:36:45;112.63;;;49.17;;
51288;SDS011;37372;52.294;5.152;2023-09-12T03:39:10;128.13;;;52.22;;
51288;SDS011;37372;52.294;5.152;2023-09-12T03:41:38;132.60;;;55.63;;
51288;SDS011;37372;52.294;5.152;2023-09-12T03:44:04;123.85;;;53.40;;
51288;SDS011;37372;52.294;5.152;2023-09-12T03:46:29;135.18;;;54.28;;
51288;SDS011;37372;52.294;5.152;2023-09-12T03:48:54;133.85;;;56.08;;
51288;SDS011;37372;52.294;5.152;2023-09-12T03:51:20;140.75;;;58.45;;
51288;SDS011;37372;52.294;5.152;2023-09-12T03:53:45;150.73;;;58.50;;
51288;SDS011;37372;52.294;5.152;2023-09-12T03:56:13;149.57;;;60.13;;
51288;SDS011;37372;52.294;5.152;2023-09-12T03:58:39;145.77;;;58.88;;
51288;SDS011;37372;52.294;5.152;2023-09-12T04:01:05;152.93;;;60.00;;
51288;SDS011;37372;52.294;5.152;2023-09-12T04:03:30;140.10;;;57.42;;
51288;SDS011;37372;52.294;5.152;2023-09-12T04:05:56;153.88;;;59.78;;
51288;SDS011;37372;52.294;5.152;2023-09-12T04:08:21;146.57;;;59.00;;
51288;SDS011;37372;52.294;5.152;2023-09-12T04:10:46;150.93;;;55.97;;
51288;SDS011;37372;52.294;5.152;2023-09-12T04:13:12;128.43;;;54.60;;
51288;SDS011;37372;52.294;5.152;2023-09-12T04:15:37;128.23;;;51.90;;
51288;SDS011;37372;52.294;5.152;2023-09-12T04:18:03;120.82;;;50.50;;
51288;SDS011;37372;52.294;5.152;2023-09-12T04:20:29;121.22;;;50.78;;
51288;SDS011;37372;52.294;5.152;2023-09-12T04:22:55;123.57;;;52.38;;
51288;SDS011;37372;52.294;5.152;2023-09-12T04:25:20;110.28;;;50.35;;
51288;SDS011;37372;52.294;5.152;2023-09-12T04:27:46;114.93;;;48.55;;
51288;SDS011;37372;52.294;5.152;2023-09-12T04:30:12;110.35;;;47.42;;
51288;SDS011;37372;52.294;5.152;2023-09-12T04:32:37;110.55;;;50.67;;
51288;SDS011;37372;52.294;5.152;2023-09-12T04:35:03;113.93;;;49.58;;
51288;SDS011;37372;52.294;5.152;2023-09-12T04:37:29;124.13;;;50.28;;
51288;SDS011;37372;52.294;5.152;2023-09-12T04:39:54;116.28;;;48.70;;
51288;SDS011;37372;52.294;5.152;2023-09-12T04:42:19;113.20;;;48.50;;
51288;SDS011;37372;52.294;5.152;2023-09-12T04:44:45;116.93;;;49.70;;
51288;SDS011;37372;52.294;5.152;2023-09-12T04:47:11;119.22;;;49.17;;
51288;SDS011;37372;52.294;5.152;2023-09-12T04:49:37;107.95;;;49.20;;
51288;SDS011;37372;52.294;5.152;2023-09-12T04:52:02;117.72;;;52.85;;
51288;SDS011;37372;52.294;5.152;2023-09-12T04:54:28;114.40;;;50.38;;
51288;SDS011;37372;52.294;5.152;2023-09-12T04:56:53;112.18;;;50.92;;
51288;SDS011;37372;52.294;5.152;2023-09-12T04:59:18;112.57;;;50.42;;
51288;SDS011;37372;52.294;5.152;2023-09-12T05:01:44;104.95;;;48.70;;
51288;SDS011;37372;52.294;5.152;2023-09-12T05:04:09;119.05;;;51.67;;
51288;SDS011;37372;52.294;5.152;2023-09-12T05:06:35;114.43;;;50.67;;
51288;SDS011;37372;52.294;5.152;2023-09-12T05:09:00;108.57;;;50.83;;
51288;SDS011;37372;52.294;5.152;2023-09-12T05:11:26;104.10;;;50.92;;
51288;SDS011;37372;52.294;5.152;2023-09-12T05:13:51;109.93;;;52.20;;
51288;SDS011;37372;52.294;5.152;2023-09-12T05:16:17;111.75;;;51.67;;
51288;SDS011;37372;52.294;5.152;2023-09-12T05:18:42;113.88;;;51.47;;
51288;SDS011;37372;52.294;5.152;2023-09-12T05:21:08;115.68;;;51.33;;
51288;SDS011;37372;52.294;5.152;2023-09-12T05:23:33;100.05;;;48.67;;
51288;SDS011;37372;52.294;5.152;2023-09-12T05:25:59;106.07;;;49.80;;
51288;SDS011;37372;52.294;5.152;2023-09-12T05:28:24;110.97;;;49.97;;
51288;SDS011;37372;52.294;5.152;2023-09-12T05:30:50;112.55;;;52.53;;
51288;SDS011;37372;52.294;5.152;2023-09-12T05:33:15;103.75;;;49.30;;
51288;SDS011;37372;52.294;5.152;2023-09-12T05:35:41;105.22;;;48.47;;
51288;SDS011;37372;52.294;5.152;2023-09-12T05:38:06;110.82;;;49.67;;
51288;SDS011;37372;52.294;5.152;2023-09-12T05:40:32;111.10;;;51.63;;
51288;SDS011;37372;52.294;5.152;2023-09-12T05:42:58;105.75;;;49.63;;
51288;SDS011;37372;52.294;5.152;2023-09-12T05:45:23;109.90;;;52.13;;
51288;SDS011;37372;52.294;5.152;2023-09-12T05:47:49;98.70;;;50.03;;
51288;SDS011;37372;52.294;5.152;2023-09-12T05:50:15;99.10;;;49.63;;
51288;SDS011;37372;52.294;5.152;2023-09-12T05:52:41;101.55;;;49.72;;
51288;SDS011;37372;52.294;5.152;2023-09-12T05:55:07;95.72;;;50.15;;
51288;SDS011;37372;52.294;5.152;2023-09-12T05:57:33;102.72;;;48.83;;
51288;SDS011;37372;52.294;5.152;2023-09-12T05:59:59;96.15;;;49.22;;
51288;SDS011;37372;52.294;5.152;2023-09-12T06:02:25;101.45;;;48.40;;
51288;SDS011;37372;52.294;5.152;2023-09-12T06:04:50;108.63;;;50.20;;
51288;SDS011;37372;52.294;5.152;2023-09-12T06:07:16;94.60;;;47.15;;
51288;SDS011;37372;52.294;5.152;2023-09-12T06:09:41;102.32;;;46.83;;
51288;SDS011;37372;52.294;5.152;2023-09-12T06:12:07;92.72;;;46.35;;
51288;SDS011;37372;52.294;5.152;2023-09-12T06:14:32;85.93;;;44.15;;
51288;SDS011;37372;52.294;5.152;2023-09-12T06:16:58;95.22;;;45.03;;
51288;SDS011;37372;52.294;5.152;2023-09-12T06:19:23;88.53;;;43.83;;
51288;SDS011;37372;52.294;5.152;2023-09-12T06:21:49;85.38;;;43.20;;
51288;SDS011;37372;52.294;5.152;2023-09-12T06:24:15;86.20;;;42.58;;
51288;SDS011;37372;52.294;5.152;2023-09-12T06:26:42;84.22;;;42.30;;
51288;SDS011;37372;52.294;5.152;2023-09-12T06:29:08;89.00;;;43.13;;
51288;SDS011;37372;52.294;5.152;2023-09-12T06:31:34;85.20;;;41.58;;
51288;SDS011;37372;52.294;5.152;2023-09-12T06:34:00;83.93;;;41.10;;
51288;SDS011;37372;52.294;5.152;2023-09-12T06:36:26;73.38;;;38.55;;
51288;SDS011;37372;52.294;5.152;2023-09-12T06:38:54;86.03;;;41.22;;
51288;SDS011;37372;52.294;5.152;2023-09-12T06:41:20;82.80;;;42.13;;
51288;SDS011;37372;52.294;5.152;2023-09-12T06:43:46;83.35;;;39.42;;
51288;SDS011;37372;52.294;5.152;2023-09-12T06:46:12;79.95;;;39.75;;
51288;SDS011;37372;52.294;5.152;2023-09-12T06:48:37;76.00;;;37.70;;
51288;SDS011;37372;52.294;5.152;2023-09-12T06:51:04;72.25;;;38.80;;
51288;SDS011;37372;52.294;5.152;2023-09-12T06:53:31;71.45;;;37.63;;
51288;SDS011;37372;52.294;5.152;2023-09-12T06:55:57;66.63;;;35.78;;
51288;SDS011;37372;52.294;5.152;2023-09-12T06:58:23;71.20;;;35.70;;
51288;SDS011;37372;52.294;5.152;2023-09-12T07:00:49;69.88;;;35.17;;
51288;SDS011;37372;52.294;5.152;2023-09-12T07:03:15;74.65;;;35.67;;
51288;SDS011;37372;52.294;5.152;2023-09-12T07:05:41;68.35;;;34.67;;
51288;SDS011;37372;52.294;5.152;2023-09-12T07:08:06;67.75;;;33.60;;
51288;SDS011;37372;52.294;5.152;2023-09-12T07:10:32;66.90;;;34.13;;
51288;SDS011;37372;52.294;5.152;2023-09-12T07:12:57;75.50;;;35.83;;
51288;SDS011;37372;52.294;5.152;2023-09-12T07:15:22;70.97;;;34.67;;
51288;SDS011;37372;52.294;5.152;2023-09-12T07:17:48;72.00;;;36.63;;
51288;SDS011;37372;52.294;5.152;2023-09-12T07:20:13;73.25;;;34.13;;
51288;SDS011;37372;52.294;5.152;2023-09-12T07:22:40;76.95;;;37.15;;
51288;SDS011;37372;52.294;5.152;2023-09-12T07:25:06;81.13;;;38.50;;
51288;SDS011;37372;52.294;5.152;2023-09-12T07:27:32;77.82;;;37.53;;
51288;SDS011;37372;52.294;5.152;2023-09-12T07:29:57;78.93;;;37.70;;
51288;SDS011;37372;52.294;5.152;2023-09-12T07:32:23;83.18;;;39.28;;
51288;SDS011;37372;52.294;5.152;2023-09-12T07:34:49;85.47;;;39.55;;
51288;SDS011;37372;52.294;5.152;2023-09-12T07:37:15;78.57;;;39.47;;
51288;SDS011;37372;52.294;5.152;2023-09-12T07:39:40;82.75;;;39.35;;
51288;SDS011;37372;52.294;5.152;2023-09-12T07:42:05;65.25;;;31.80;;
51288;SDS011;37372;52.294;5.152;2023-09-12T07:44:31;95.70;;;38.38;;
51288;SDS011;37372;52.294;5.152;2023-09-12T07:46:56;93.90;;;39.00;;
51288;SDS011;37372;52.294;5.152;2023-09-12T07:49:21;86.32;;;38.42;;
51288;SDS011;37372;52.294;5.152;2023-09-12T07:51:49;87.28;;;39.22;;
51288;SDS011;37372;52.294;5.152;2023-09-12T07:54:14;85.07;;;40.25;;
51288;SDS011;37372;52.294;5.152;2023-09-12T07:56:40;83.78;;;37.05;;
51288;SDS011;37372;52.294;5.152;2023-09-12T07:59:06;83.30;;;38.60;;
51288;SDS011;37372;52.294;5.152;2023-09-12T08:01:31;73.05;;;35.53;;
51288;SDS011;37372;52.294;5.152;2023-09-12T08:03:56;77.07;;;36.22;;
51288;SDS011;37372;52.294;5.152;2023-09-12T08:06:22;83.53;;;37.63;;
51288;SDS011;37372;52.294;5.152;2023-09-12T08:08:49;74.22;;;36.40;;
51288;SDS011;37372;52.294;5.152;2023-09-12T08:11:14;82.78;;;35.78;;
51288;SDS011;37372;52.294;5.152;2023-09-12T08:13:40;82.20;;;37.50;;
51288;SDS011;37372;52.294;5.152;2023-09-12T08:16:05;65.13;;;35.78;;
51288;SDS011;37372;52.294;5.152;2023-09-12T08:18:30;71.43;;;36.45;;
51288;SDS011;37372;52.294;5.152;2023-09-12T08:20:56;62.95;;;32.97;;
51288;SDS011;37372;52.294;5.152;2023-09-12T08:23:22;66.20;;;33.80;;
51288;SDS011;37372;52.294;5.152;2023-09-12T08:25:47;59.75;;;32.92;;
51288;SDS011;37372;52.294;5.152;2023-09-12T08:28:13;51.55;;;31.63;;
51288;SDS011;37372;52.294;5.152;2023-09-12T08:30:39;54.55;;;31.10;;
51288;SDS011;37372;52.294;5.152;2023-09-12T08:33:04;56.60;;;31.38;;
51288;SDS011;37372;52.294;5.152;2023-09-12T08:35:31;48.47;;;28.63;;
51288;SDS011;37372;52.294;5.152;2023-09-12T08:37:57;48.72;;;29.42;;
51288;SDS011;37372;52.294;5.152;2023-09-12T08:40:23;52.85;;;31.75;;
51288;SDS011;37372;52.294;5.152;2023-09-12T08:42:48;48.33;;;30.33;;
51288;SDS011;37372;52.294;5.152;2023-09-12T08:45:17;58.38;;;30.08;;
51288;SDS011;37372;52.294;5.152;2023-09-12T08:47:50;44.85;;;24.95;;
51288;SDS011;37372;52.294;5.152;2023-09-12T08:50:18;58.28;;;31.85;;
51288;SDS011;37372;52.294;5.152;2023-09-12T08:52:46;48.75;;;30.58;;
51288;SDS011;37372;52.294;5.152;2023-09-12T08:55:12;56.63;;;32.13;;
51288;SDS011;37372;52.294;5.152;2023-09-12T08:57:39;58.22;;;31.23;;
51288;SDS011;37372;52.294;5.152;2023-09-12T09:00:07;52.17;;;30.90;;
51288;SDS011;37372;52.294;5.152;2023-09-12T09:02:36;49.78;;;29.33;;
51288;SDS011;37372;52.294;5.152;2023-09-12T09:05:03;46.70;;;28.15;;
51288;SDS011;37372;52.294;5.152;2023-09-12T09:07:31;47.38;;;26.85;;
51288;SDS011;37372;52.294;5.152;2023-09-12T09:10:00;36.63;;;22.50;;
51288;SDS011;37372;52.294;5.152;2023-09-12T09:12:30;38.67;;;23.77;;
51288;SDS011;37372;52.294;5.152;2023-09-12T09:17:48;45.72;;;24.63;;
51288;SDS011;37372;52.294;5.152;2023-09-12T09:20:22;42.35;;;24.85;;
51288;SDS011;37372;52.294;5.152;2023-09-12T09:22:56;40.80;;;23.88;;
51288;SDS011;37372;52.294;5.152;2023-09-12T09:25:41;35.58;;;23.05;;
51288;SDS011;37372;52.294;5.152;2023-09-12T09:28:17;37.90;;;22.95;;
51288;SDS011;37372;52.294;5.152;2023-09-12T09:30:47;40.78;;;24.13;;
51288;SDS011;37372;52.294;5.152;2023-09-12T09:33:16;41.45;;;23.25;;
51288;SDS011;37372;52.294;5.152;2023-09-12T09:35:41;32.80;;;20.05;;
51288;SDS011;37372;52.294;5.152;2023-09-12T09:38:08;38.03;;;22.88;;
51288;SDS011;37372;52.294;5.152;2023-09-12T09:40:34;32.92;;;21.38;;
51288;SDS011;37372;52.294;5.152;2023-09-12T09:43:01;37.10;;;23.13;;
51288;SDS011;37372;52.294;5.152;2023-09-12T09:45:31;36.78;;;22.98;;
51288;SDS011;37372;52.294;5.152;2023-09-12T09:47:58;33.13;;;21.48;;
51288;SDS011;37372;52.294;5.152;2023-09-12T09:50:28;35.38;;;22.73;;
51288;SDS011;37372;52.294;5.152;2023-09-12T09:52:54;36.85;;;22.58;;
51288;SDS011;37372;52.294;5.152;2023-09-12T09:55:21;35.95;;;21.88;;
51288;SDS011;37372;52.294;5.152;2023-09-12T09:57:46;32.53;;;21.73;;
51288;SDS011;37372;52.294;5.152;2023-09-12T10:00:13;29.98;;;21.20;;
51288;SDS011;37372;52.294;5.152;2023-09-12T10:02:40;30.00;;;21.45;;
51288;SDS011;37372;52.294;5.152;2023-09-12T10:05:07;31.92;;;19.48;;
51288;SDS011;37372;52.294;5.152;2023-09-12T10:07:34;34.03;;;20.38;;
51288;SDS011;37372;52.294;5.152;2023-09-12T10:10:02;30.85;;;19.52;;
51288;SDS011;37372;52.294;5.152;2023-09-12T10:12:34;29.13;;;18.73;;
51288;SDS011;37372;52.294;5.152;2023-09-12T10:15:01;30.42;;;19.25;;
51288;SDS011;37372;52.294;5.152;2023-09-12T10:17:34;32.67;;;20.88;;
51288;SDS011;37372;52.294;5.152;2023-09-12T10:20:03;33.13;;;21.58;;
51288;SDS011;37372;52.294;5.152;2023-09-12T10:22:33;31.23;;;20.40;;
51288;SDS011;37372;52.294;5.152;2023-09-12T10:25:01;29.95;;;19.27;;
51288;SDS011;37372;52.294;5.152;2023-09-12T10:27:28;33.97;;;22.05;;
51288;SDS011;37372;52.294;5.152;2023-09-12T10:29:54;31.20;;;20.23;;
51288;SDS011;37372;52.294;5.152;2023-09-12T10:32:21;36.97;;;22.10;;
51288;SDS011;37372;52.294;5.152;2023-09-12T10:34:48;29.80;;;20.60;;
51288;SDS011;37372;52.294;5.152;2023-09-12T10:37:17;31.65;;;20.50;;
51288;SDS011;37372;52.294;5.152;2023-09-12T10:39:45;35.28;;;19.20;;
51288;SDS011;37372;52.294;5.152;2023-09-12T10:42:11;28.75;;;18.58;;
51288;SDS011;37372;52.294;5.152;2023-09-12T10:44:38;26.40;;;17.15;;
51288;SDS011;37372;52.294;5.152;2023-09-12T10:47:04;26.60;;;16.77;;
51288;SDS011;37372;52.294;5.152;2023-09-12T10:49:30;33.33;;;20.17;;
51288;SDS011;37372;52.294;5.152;2023-09-12T10:51:56;27.33;;;18.60;;
51288;SDS011;37372;52.294;5.152;2023-09-12T10:54:26;26.73;;;17.25;;
51288;SDS011;37372;52.294;5.152;2023-09-12T10:57:07;33.28;;;21.85;;
51288;SDS011;37372;52.294;5.152;2023-09-12T10:59:33;33.03;;;20.52;;
51288;SDS011;37372;52.294;5.152;2023-09-12T11:04:54;29.85;;;18.25;;
51288;SDS011;37372;52.294;5.152;2023-09-12T11:07:30;21.00;;;13.05;;
51288;SDS011;37372;52.294;5.152;2023-09-12T11:12:40;28.85;;;17.10;;
51288;SDS011;37372;52.294;5.152;2023-09-12T11:15:07;30.77;;;20.00;;
51288;SDS011;37372;52.294;5.152;2023-09-12T11:17:37;26.13;;;16.77;;
51288;SDS011;37372;52.294;5.152;2023-09-12T11:20:04;27.55;;;17.58;;
51288;SDS011;37372;52.294;5.152;2023-09-12T11:22:35;30.35;;;19.10;;
51288;SDS011;37372;52.294;5.152;2023-09-12T11:25:02;28.65;;;18.75;;
51288;SDS011;37372;52.294;5.152;2023-09-12T11:27:32;30.90;;;18.70;;
51288;SDS011;37372;52.294;5.152;2023-09-12T11:30:09;26.88;;;17.65;;
51288;SDS011;37372;52.294;5.152;2023-09-12T11:32:35;31.75;;;19.80;;
51288;SDS011;37372;52.294;5.152;2023-09-12T11:35:08;26.65;;;18.27;;
51288;SDS011;37372;52.294;5.152;2023-09-12T11:37:35;29.08;;;17.10;;
51288;SDS011;37372;52.294;5.152;2023-09-12T11:42:41;25.45;;;17.75;;
51288;SDS011;37372;52.294;5.152;2023-09-12T11:45:10;24.08;;;16.35;;
51288;SDS011;37372;52.294;5.152;2023-09-12T11:47:42;30.08;;;17.35;;
51288;SDS011;37372;52.294;5.152;2023-09-12T11:50:42;23.02;;;14.68;;
51288;SDS011;37372;52.294;5.152;2023-09-12T11:53:04;23.30;;;11.75;;
51288;SDS011;37372;52.294;5.152;2023-09-12T11:55:32;20.02;;;12.35;;
51288;SDS011;37372;52.294;5.152;2023-09-12T11:58:00;22.38;;;13.25;;
51288;SDS011;37372;52.294;5.152;2023-09-12T12:00:25;22.13;;;13.23;;
51288;SDS011;37372;52.294;5.152;2023-09-12T12:02:52;23.40;;;13.43;;
51288;SDS011;37372;52.294;5.152;2023-09-12T12:05:18;19.08;;;13.20;;
51288;SDS011;37372;52.294;5.152;2023-09-12T12:07:44;22.15;;;13.18;;
51288;SDS011;37372;52.294;5.152;2023-09-12T12:10:11;23.98;;;13.38;;
51288;SDS011;37372;52.294;5.152;2023-09-12T12:12:37;19.15;;;13.30;;
51288;SDS011;37372;52.294;5.152;2023-09-12T12:15:02;20.17;;;12.50;;
51288;SDS011;37372;52.294;5.152;2023-09-12T12:17:28;23.50;;;12.57;;
51288;SDS011;37372;52.294;5.152;2023-09-12T12:19:53;25.55;;;13.65;;
51288;SDS011;37372;52.294;5.152;2023-09-12T12:22:19;23.92;;;14.98;;
51288;SDS011;37372;52.294;5.152;2023-09-12T12:24:45;26.08;;;14.43;;
51288;SDS011;37372;52.294;5.152;2023-09-12T12:27:14;19.45;;;12.05;;
51288;SDS011;37372;52.294;5.152;2023-09-12T12:29:40;22.70;;;13.93;;
51288;SDS011;37372;52.294;5.152;2023-09-12T12:32:05;23.92;;;15.32;;
51288;SDS011;37372;52.294;5.152;2023-09-12T12:34:33;27.95;;;17.17;;
51288;SDS011;37372;52.294;5.152;2023-09-12T12:36:59;23.52;;;15.95;;
51288;SDS011;37372;52.294;5.152;2023-09-12T12:39:24;27.33;;;17.83;;
51288;SDS011;37372;52.294;5.152;2023-09-12T12:41:53;24.60;;;17.10;;
51288;SDS011;37372;52.294;5.152;2023-09-12T12:44:19;30.75;;;19.48;;
51288;SDS011;37372;52.294;5.152;2023-09-12T12:46:48;34.00;;;19.88;;
51288;SDS011;37372;52.294;5.152;2023-09-12T12:49:15;31.45;;;19.98;;
51288;SDS011;37372;52.294;5.152;2023-09-12T12:51:41;29.88;;;19.02;;
51288;SDS011;37372;52.294;5.152;2023-09-12T12:54:07;32.33;;;21.25;;
51288;SDS011;37372;52.294;5.152;2023-09-12T12:56:33;31.48;;;20.13;;
51288;SDS011;37372;52.294;5.152;2023-09-12T12:58:59;30.08;;;20.27;;
51288;SDS011;37372;52.294;5.152;2023-09-12T13:01:27;33.38;;;21.92;;
51288;SDS011;37372;52.294;5.152;2023-09-12T13:03:53;35.03;;;24.48;;
51288;SDS011;37372;52.294;5.152;2023-09-12T13:06:19;45.78;;;28.25;;
51288;SDS011;37372;52.294;5.152;2023-09-12T13:08:45;37.42;;;25.67;;
51288;SDS011;37372;52.294;5.152;2023-09-12T13:11:12;42.45;;;27.23;;
51288;SDS011;37372;52.294;5.152;2023-09-12T13:13:39;42.92;;;27.95;;
51288;SDS011;37372;52.294;5.152;2023-09-12T13:16:05;41.03;;;27.75;;
51288;SDS011;37372;52.294;5.152;2023-09-12T13:18:34;35.67;;;22.90;;
51288;SDS011;37372;52.294;5.152;2023-09-12T13:21:00;40.85;;;27.45;;
51288;SDS011;37372;52.294;5.152;2023-09-12T13:23:27;34.05;;;24.00;;
51288;SDS011;37372;52.294;5.152;2023-09-12T13:25:53;36.65;;;24.17;;
51288;SDS011;37372;52.294;5.152;2023-09-12T13:28:19;35.78;;;24.23;;
51288;SDS011;37372;52.294;5.152;2023-09-12T13:30:44;31.20;;;21.83;;
51288;SDS011;37372;52.294;5.152;2023-09-12T13:33:10;37.50;;;21.90;;
51288;SDS011;37372;52.294;5.152;2023-09-12T13:35:36;28.70;;;18.92;;
51288;SDS011;37372;52.294;5.152;2023-09-12T13:38:02;26.25;;;18.98;;
51288;SDS011;37372;52.294;5.152;2023-09-12T13:40:34;30.00;;;19.90;;
51288;SDS011;37372;52.294;5.152;2023-09-12T13:43:01;32.85;;;20.80;;
51288;SDS011;37372;52.294;5.152;2023-09-12T13:45:27;29.33;;;19.10;;
51288;SDS011;37372;52.294;5.152;2023-09-12T13:47:53;30.58;;;20.73;;
51288;SDS011;37372;52.294;5.152;2023-09-12T13:50:18;29.25;;;18.58;;
51288;SDS011;37372;52.294;5.152;2023-09-12T13:52:44;32.17;;;19.98;;
51288;SDS011;37372;52.294;5.152;2023-09-12T13:55:09;27.75;;;19.83;;
51288;SDS011;37372;52.294;5.152;2023-09-12T13:57:38;24.98;;;17.27;;
51288;SDS011;37372;52.294;5.152;2023-09-12T14:00:04;26.75;;;17.42;;
51288;SDS011;37372;52.294;5.152;2023-09-12T14:02:30;26.88;;;17.65;;
51288;SDS011;37372;52.294;5.152;2023-09-12T14:04:55;26.73;;;17.92;;
51288;SDS011;37372;52.294;5.152;2023-09-12T14:07:21;27.70;;;19.48;;
51288;SDS011;37372;52.294;5.152;2023-09-12T14:09:46;21.42;;;16.83;;
51288;SDS011;37372;52.294;5.152;2023-09-12T14:12:14;24.17;;;17.42;;
51288;SDS011;37372;52.294;5.152;2023-09-12T14:14:40;29.00;;;18.15;;
51288;SDS011;37372;52.294;5.152;2023-09-12T14:17:05;22.42;;;15.32;;
51288;SDS011;37372;52.294;5.152;2023-09-12T14:19:30;23.38;;;15.98;;
51288;SDS011;37372;52.294;5.152;2023-09-12T14:21:56;24.58;;;15.48;;
51288;SDS011;37372;52.294;5.152;2023-09-12T14:24:22;20.10;;;13.60;;
51288;SDS011;37372;52.294;5.152;2023-09-12T14:26:48;19.23;;;14.65;;